sensor_id;sensor_type;location;lat;lon;timestamp;P1;durP1;ratioP1;P2;durP2;ratioP2
15354;SDS011;7777;52.254;9.618;2023-08-24T00:01:16;4.73;;;1.93;;
15354;SDS011;7777;52.254;9.618;2023-08-24T00:03:45;5.13;;;1.73;;
15354;SDS011;7777;52.254;9.618;2023-08-24T00:06:11;2.60;;;1.90;;
15354;SDS011;7777;52.254;9.618;2023-08-24T00:08:37;5.80;;;1.70;;
15354;SDS011;7777;52.254;9.618;2023-08-24T00:11:03;2.90;;;1.80;;
15354;SDS011;7777;52.254;9.618;2023-08-24T00:13:30;9.10;;;2.27;;
15354;SDS011;7777;52.254;9.618;2023-08-24T00:15:57;8.00;;;1.73;;
15354;SDS011;7777;52.254;9.618;2023-08-24T00:18:23;3.90;;;2.07;;
15354;SDS011;7777;52.254;9.618;2023-08-24T00:20:49;6.07;;;2.10;;
15354;SDS011;7777;52.254;9.618;2023-08-24T00:23:16;5.80;;;2.43;;
15354;SDS011;7777;52.254;9.618;2023-08-24T00:25:42;2.50;;;1.70;;
15354;SDS011;7777;52.254;9.618;2023-08-24T00:28:08;5.57;;;2.10;;
15354;SDS011;7777;52.254;9.618;2023-08-24T00:30:34;6.97;;;2.07;;
15354;SDS011;7777;52.254;9.618;2023-08-24T00:33:01;5.73;;;2.60;;
15354;SDS011;7777;52.254;9.618;2023-08-24T00:35:27;4.50;;;1.87;;
15354;SDS011;7777;52.254;9.618;2023-08-24T00:37:53;5.30;;;1.90;;
15354;SDS011;7777;52.254;9.618;2023-08-24T00:40:19;6.60;;;2.03;;
15354;SDS011;7777;52.254;9.618;2023-08-24T00:42:44;5.50;;;2.20;;
15354;SDS011;7777;52.254;9.618;2023-08-24T00:45:13;8.77;;;2.33;;
15354;SDS011;7777;52.254;9.618;2023-08-24T00:47:40;4.27;;;1.90;;
15354;SDS011;7777;52.254;9.618;2023-08-24T00:50:09;5.03;;;1.80;;
15354;SDS011;7777;52.254;9.618;2023-08-24T00:52:36;5.20;;;2.13;;
15354;SDS011;7777;52.254;9.618;2023-08-24T00:55:04;3.20;;;2.00;;
15354;SDS011;7777;52.254;9.618;2023-08-24T00:57:31;5.90;;;1.90;;
15354;SDS011;7777;52.254;9.618;2023-08-24T00:59:59;3.20;;;1.77;;
15354;SDS011;7777;52.254;9.618;2023-08-24T01:02:27;3.13;;;1.70;;
15354;SDS011;7777;52.254;9.618;2023-08-24T01:04:53;2.13;;;1.80;;
15354;SDS011;7777;52.254;9.618;2023-08-24T01:07:19;4.87;;;2.87;;
15354;SDS011;7777;52.254;9.618;2023-08-24T01:09:46;2.83;;;1.90;;
15354;SDS011;7777;52.254;9.618;2023-08-24T01:14:50;4.10;;;2.37;;
15354;SDS011;7777;52.254;9.618;2023-08-24T01:17:27;3.63;;;1.80;;
15354;SDS011;7777;52.254;9.618;2023-08-24T01:19:56;2.27;;;1.80;;
15354;SDS011;7777;52.254;9.618;2023-08-24T01:25:12;2.30;;;1.80;;
15354;SDS011;7777;52.254;9.618;2023-08-24T01:27:59;4.67;;;2.20;;
15354;SDS011;7777;52.254;9.618;2023-08-24T01:30:28;4.53;;;2.40;;
15354;SDS011;7777;52.254;9.618;2023-08-24T01:32:56;2.80;;;2.13;;
15354;SDS011;7777;52.254;9.618;2023-08-24T01:35:21;6.97;;;2.40;;
15354;SDS011;7777;52.254;9.618;2023-08-24T01:37:47;4.93;;;1.70;;
15354;SDS011;7777;52.254;9.618;2023-08-24T01:40:26;2.83;;;2.07;;
15354;SDS011;7777;52.254;9.618;2023-08-24T01:43:11;6.00;;;2.20;;
15354;SDS011;7777;52.254;9.618;2023-08-24T01:45:39;3.73;;;1.83;;
15354;SDS011;7777;52.254;9.618;2023-08-24T01:48:07;5.27;;;2.10;;
15354;SDS011;7777;52.254;9.618;2023-08-24T01:50:35;2.10;;;1.70;;
15354;SDS011;7777;52.254;9.618;2023-08-24T01:53:21;3.80;;;2.00;;
15354;SDS011;7777;52.254;9.618;2023-08-24T01:55:47;2.00;;;1.80;;
15354;SDS011;7777;52.254;9.618;2023-08-24T01:58:13;4.20;;;2.10;;
15354;SDS011;7777;52.254;9.618;2023-08-24T02:00:38;2.93;;;2.17;;
15354;SDS011;7777;52.254;9.618;2023-08-24T02:03:04;5.07;;;2.40;;
15354;SDS011;7777;52.254;9.618;2023-08-24T02:05:30;3.40;;;2.00;;
15354;SDS011;7777;52.254;9.618;2023-08-24T02:07:56;2.97;;;2.40;;
15354;SDS011;7777;52.254;9.618;2023-08-24T02:10:22;4.17;;;2.33;;
15354;SDS011;7777;52.254;9.618;2023-08-24T02:12:48;3.27;;;2.37;;
15354;SDS011;7777;52.254;9.618;2023-08-24T02:15:14;3.00;;;2.20;;
15354;SDS011;7777;52.254;9.618;2023-08-24T02:17:40;3.73;;;3.20;;
15354;SDS011;7777;52.254;9.618;2023-08-24T02:20:06;3.83;;;2.50;;
15354;SDS011;7777;52.254;9.618;2023-08-24T02:22:33;5.77;;;3.00;;
15354;SDS011;7777;52.254;9.618;2023-08-24T02:24:59;3.00;;;2.40;;
15354;SDS011;7777;52.254;9.618;2023-08-24T02:27:26;4.60;;;2.60;;
15354;SDS011;7777;52.254;9.618;2023-08-24T02:29:52;4.27;;;3.33;;
15354;SDS011;7777;52.254;9.618;2023-08-24T02:32:18;2.90;;;2.60;;
15354;SDS011;7777;52.254;9.618;2023-08-24T02:34:43;4.50;;;2.90;;
15354;SDS011;7777;52.254;9.618;2023-08-24T02:37:09;5.87;;;2.70;;
15354;SDS011;7777;52.254;9.618;2023-08-24T02:39:35;2.73;;;2.30;;
15354;SDS011;7777;52.254;9.618;2023-08-24T02:42:01;9.50;;;2.83;;
15354;SDS011;7777;52.254;9.618;2023-08-24T02:44:27;7.37;;;3.00;;
15354;SDS011;7777;52.254;9.618;2023-08-24T02:46:53;6.53;;;3.03;;
15354;SDS011;7777;52.254;9.618;2023-08-24T02:49:19;4.17;;;2.90;;
15354;SDS011;7777;52.254;9.618;2023-08-24T02:51:45;5.00;;;3.07;;
15354;SDS011;7777;52.254;9.618;2023-08-24T02:54:11;3.57;;;2.63;;
15354;SDS011;7777;52.254;9.618;2023-08-24T02:56:37;4.63;;;3.30;;
15354;SDS011;7777;52.254;9.618;2023-08-24T02:59:03;7.20;;;2.87;;
15354;SDS011;7777;52.254;9.618;2023-08-24T03:01:28;6.27;;;3.40;;
15354;SDS011;7777;52.254;9.618;2023-08-24T03:03:54;4.93;;;3.37;;
15354;SDS011;7777;52.254;9.618;2023-08-24T03:06:20;6.20;;;3.47;;
15354;SDS011;7777;52.254;9.618;2023-08-24T03:08:46;3.60;;;3.07;;
15354;SDS011;7777;52.254;9.618;2023-08-24T03:11:11;4.50;;;3.40;;
15354;SDS011;7777;52.254;9.618;2023-08-24T03:13:37;7.43;;;3.30;;
15354;SDS011;7777;52.254;9.618;2023-08-24T03:16:04;6.90;;;3.50;;
15354;SDS011;7777;52.254;9.618;2023-08-24T03:18:31;5.37;;;3.13;;
15354;SDS011;7777;52.254;9.618;2023-08-24T03:20:57;3.53;;;3.20;;
15354;SDS011;7777;52.254;9.618;2023-08-24T03:23:23;7.50;;;3.60;;
15354;SDS011;7777;52.254;9.618;2023-08-24T03:25:48;5.80;;;3.30;;
15354;SDS011;7777;52.254;9.618;2023-08-24T03:28:14;5.43;;;2.97;;
15354;SDS011;7777;52.254;9.618;2023-08-24T03:30:44;4.10;;;3.13;;
15354;SDS011;7777;52.254;9.618;2023-08-24T03:33:13;5.27;;;3.43;;
15354;SDS011;7777;52.254;9.618;2023-08-24T03:35:39;3.53;;;3.20;;
15354;SDS011;7777;52.254;9.618;2023-08-24T03:38:05;3.70;;;3.10;;
15354;SDS011;7777;52.254;9.618;2023-08-24T03:40:31;4.77;;;3.40;;
15354;SDS011;7777;52.254;9.618;2023-08-24T03:42:56;4.13;;;3.40;;
15354;SDS011;7777;52.254;9.618;2023-08-24T03:45:22;5.97;;;3.57;;
15354;SDS011;7777;52.254;9.618;2023-08-24T03:47:48;5.37;;;3.70;;
15354;SDS011;7777;52.254;9.618;2023-08-24T03:50:15;5.07;;;3.53;;
15354;SDS011;7777;52.254;9.618;2023-08-24T03:52:41;9.27;;;3.80;;
15354;SDS011;7777;52.254;9.618;2023-08-24T03:55:07;4.90;;;3.20;;
15354;SDS011;7777;52.254;9.618;2023-08-24T03:57:33;5.57;;;3.20;;
15354;SDS011;7777;52.254;9.618;2023-08-24T03:59:59;6.40;;;3.30;;
15354;SDS011;7777;52.254;9.618;2023-08-24T04:02:25;4.00;;;3.60;;
15354;SDS011;7777;52.254;9.618;2023-08-24T04:04:51;5.13;;;3.80;;
15354;SDS011;7777;52.254;9.618;2023-08-24T04:07:18;6.17;;;3.30;;
15354;SDS011;7777;52.254;9.618;2023-08-24T04:09:43;4.00;;;3.47;;
15354;SDS011;7777;52.254;9.618;2023-08-24T04:12:10;4.43;;;3.40;;
15354;SDS011;7777;52.254;9.618;2023-08-24T04:14:36;5.23;;;2.80;;
15354;SDS011;7777;52.254;9.618;2023-08-24T04:17:02;3.93;;;3.23;;
15354;SDS011;7777;52.254;9.618;2023-08-24T04:19:28;5.87;;;3.00;;
15354;SDS011;7777;52.254;9.618;2023-08-24T04:21:54;4.17;;;2.90;;
15354;SDS011;7777;52.254;9.618;2023-08-24T04:24:19;4.73;;;3.23;;
15354;SDS011;7777;52.254;9.618;2023-08-24T04:26:45;4.97;;;3.20;;
15354;SDS011;7777;52.254;9.618;2023-08-24T04:29:11;6.47;;;3.40;;
15354;SDS011;7777;52.254;9.618;2023-08-24T04:31:37;4.90;;;3.63;;
15354;SDS011;7777;52.254;9.618;2023-08-24T04:34:05;3.80;;;3.10;;
15354;SDS011;7777;52.254;9.618;2023-08-24T04:36:31;5.47;;;2.83;;
15354;SDS011;7777;52.254;9.618;2023-08-24T04:38:57;3.80;;;3.20;;
15354;SDS011;7777;52.254;9.618;2023-08-24T04:41:22;6.00;;;3.10;;
15354;SDS011;7777;52.254;9.618;2023-08-24T04:43:48;6.63;;;3.77;;
15354;SDS011;7777;52.254;9.618;2023-08-24T04:46:14;9.70;;;3.60;;
15354;SDS011;7777;52.254;9.618;2023-08-24T04:48:39;6.83;;;4.00;;
15354;SDS011;7777;52.254;9.618;2023-08-24T04:51:05;6.97;;;3.70;;
15354;SDS011;7777;52.254;9.618;2023-08-24T04:53:31;7.70;;;3.40;;
15354;SDS011;7777;52.254;9.618;2023-08-24T04:55:56;5.17;;;3.50;;
15354;SDS011;7777;52.254;9.618;2023-08-24T04:58:22;4.67;;;3.67;;
15354;SDS011;7777;52.254;9.618;2023-08-24T05:00:48;5.23;;;3.77;;
15354;SDS011;7777;52.254;9.618;2023-08-24T05:03:14;3.90;;;3.40;;
15354;SDS011;7777;52.254;9.618;2023-08-24T05:05:40;8.33;;;4.20;;
15354;SDS011;7777;52.254;9.618;2023-08-24T05:08:05;5.57;;;3.67;;
15354;SDS011;7777;52.254;9.618;2023-08-24T05:10:34;10.10;;;4.17;;
15354;SDS011;7777;52.254;9.618;2023-08-24T05:13:00;6.90;;;3.70;;
15354;SDS011;7777;52.254;9.618;2023-08-24T05:15:26;5.43;;;3.67;;
15354;SDS011;7777;52.254;9.618;2023-08-24T05:17:52;6.27;;;3.47;;
15354;SDS011;7777;52.254;9.618;2023-08-24T05:20:21;7.47;;;4.23;;
15354;SDS011;7777;52.254;9.618;2023-08-24T05:22:48;9.47;;;4.10;;
15354;SDS011;7777;52.254;9.618;2023-08-24T05:25:14;8.33;;;3.47;;
15354;SDS011;7777;52.254;9.618;2023-08-24T05:27:41;5.70;;;3.63;;
15354;SDS011;7777;52.254;9.618;2023-08-24T05:30:07;4.47;;;4.03;;
15354;SDS011;7777;52.254;9.618;2023-08-24T05:32:34;7.23;;;4.23;;
15354;SDS011;7777;52.254;9.618;2023-08-24T05:35:07;5.53;;;4.73;;
15354;SDS011;7777;52.254;9.618;2023-08-24T05:37:34;5.80;;;4.43;;
15354;SDS011;7777;52.254;9.618;2023-08-24T05:40:00;5.13;;;4.63;;
15354;SDS011;7777;52.254;9.618;2023-08-24T05:42:27;6.33;;;4.43;;
15354;SDS011;7777;52.254;9.618;2023-08-24T05:44:53;6.33;;;4.53;;
15354;SDS011;7777;52.254;9.618;2023-08-24T05:47:19;8.83;;;4.43;;
15354;SDS011;7777;52.254;9.618;2023-08-24T05:49:44;8.23;;;4.47;;
15354;SDS011;7777;52.254;9.618;2023-08-24T05:52:10;5.30;;;3.93;;
15354;SDS011;7777;52.254;9.618;2023-08-24T05:54:37;5.87;;;4.10;;
15354;SDS011;7777;52.254;9.618;2023-08-24T05:57:03;9.57;;;3.87;;
15354;SDS011;7777;52.254;9.618;2023-08-24T05:59:31;7.27;;;3.93;;
15354;SDS011;7777;52.254;9.618;2023-08-24T06:01:58;6.83;;;3.60;;
15354;SDS011;7777;52.254;9.618;2023-08-24T06:04:24;8.17;;;3.40;;
15354;SDS011;7777;52.254;9.618;2023-08-24T06:06:49;4.50;;;3.77;;
15354;SDS011;7777;52.254;9.618;2023-08-24T06:09:16;4.70;;;4.00;;
15354;SDS011;7777;52.254;9.618;2023-08-24T06:11:42;5.37;;;3.57;;
15354;SDS011;7777;52.254;9.618;2023-08-24T06:14:07;5.93;;;3.37;;
15354;SDS011;7777;52.254;9.618;2023-08-24T06:16:33;7.60;;;3.87;;
15354;SDS011;7777;52.254;9.618;2023-08-24T06:18:59;7.03;;;4.20;;
15354;SDS011;7777;52.254;9.618;2023-08-24T06:21:25;9.87;;;4.67;;
15354;SDS011;7777;52.254;9.618;2023-08-24T06:23:50;7.60;;;4.77;;
15354;SDS011;7777;52.254;9.618;2023-08-24T06:26:17;10.40;;;5.40;;
15354;SDS011;7777;52.254;9.618;2023-08-24T06:28:43;8.10;;;4.13;;
15354;SDS011;7777;52.254;9.618;2023-08-24T06:31:09;4.53;;;3.70;;
15354;SDS011;7777;52.254;9.618;2023-08-24T06:33:35;8.57;;;4.97;;
15354;SDS011;7777;52.254;9.618;2023-08-24T06:36:02;6.40;;;4.67;;
15354;SDS011;7777;52.254;9.618;2023-08-24T06:38:33;8.60;;;4.93;;
15354;SDS011;7777;52.254;9.618;2023-08-24T06:40:59;6.87;;;4.90;;
15354;SDS011;7777;52.254;9.618;2023-08-24T06:43:26;9.73;;;5.73;;
15354;SDS011;7777;52.254;9.618;2023-08-24T06:45:53;9.47;;;5.30;;
15354;SDS011;7777;52.254;9.618;2023-08-24T06:48:20;8.30;;;4.97;;
15354;SDS011;7777;52.254;9.618;2023-08-24T06:50:46;9.87;;;5.70;;
15354;SDS011;7777;52.254;9.618;2023-08-24T06:53:11;7.40;;;5.00;;
15354;SDS011;7777;52.254;9.618;2023-08-24T06:55:37;7.17;;;5.77;;
15354;SDS011;7777;52.254;9.618;2023-08-24T06:58:03;7.63;;;5.67;;
15354;SDS011;7777;52.254;9.618;2023-08-24T07:00:31;8.53;;;5.60;;
15354;SDS011;7777;52.254;9.618;2023-08-24T07:02:58;9.70;;;5.70;;
15354;SDS011;7777;52.254;9.618;2023-08-24T07:05:24;11.00;;;6.07;;
15354;SDS011;7777;52.254;9.618;2023-08-24T07:07:50;8.20;;;5.60;;
15354;SDS011;7777;52.254;9.618;2023-08-24T07:10:16;7.93;;;5.80;;
15354;SDS011;7777;52.254;9.618;2023-08-24T07:12:42;8.23;;;5.57;;
15354;SDS011;7777;52.254;9.618;2023-08-24T07:15:10;8.23;;;5.17;;
15354;SDS011;7777;52.254;9.618;2023-08-24T07:17:37;6.30;;;5.30;;
15354;SDS011;7777;52.254;9.618;2023-08-24T07:20:03;11.67;;;5.63;;
15354;SDS011;7777;52.254;9.618;2023-08-24T07:22:48;5.37;;;4.60;;
15354;SDS011;7777;52.254;9.618;2023-08-24T07:25:15;8.27;;;6.13;;
15354;SDS011;7777;52.254;9.618;2023-08-24T07:27:42;9.20;;;6.37;;
15354;SDS011;7777;52.254;9.618;2023-08-24T07:30:08;7.77;;;6.10;;
15354;SDS011;7777;52.254;9.618;2023-08-24T07:32:36;8.17;;;6.07;;
15354;SDS011;7777;52.254;9.618;2023-08-24T07:35:02;7.03;;;5.67;;
15354;SDS011;7777;52.254;9.618;2023-08-24T07:37:28;6.60;;;5.63;;
15354;SDS011;7777;52.254;9.618;2023-08-24T07:39:54;6.10;;;5.50;;
15354;SDS011;7777;52.254;9.618;2023-08-24T07:42:20;6.87;;;5.50;;
15354;SDS011;7777;52.254;9.618;2023-08-24T07:44:49;10.13;;;6.10;;
15354;SDS011;7777;52.254;9.618;2023-08-24T07:47:15;10.30;;;5.73;;
15354;SDS011;7777;52.254;9.618;2023-08-24T07:49:41;7.63;;;5.57;;
15354;SDS011;7777;52.254;9.618;2023-08-24T07:52:10;9.33;;;5.00;;
15354;SDS011;7777;52.254;9.618;2023-08-24T07:54:36;9.67;;;5.33;;
15354;SDS011;7777;52.254;9.618;2023-08-24T07:57:03;5.77;;;4.73;;
15354;SDS011;7777;52.254;9.618;2023-08-24T07:59:30;6.67;;;5.20;;
15354;SDS011;7777;52.254;9.618;2023-08-24T08:01:56;5.83;;;5.23;;
15354;SDS011;7777;52.254;9.618;2023-08-24T08:04:22;8.00;;;4.97;;
15354;SDS011;7777;52.254;9.618;2023-08-24T08:06:47;8.60;;;5.23;;
15354;SDS011;7777;52.254;9.618;2023-08-24T08:09:13;8.13;;;5.53;;
15354;SDS011;7777;52.254;9.618;2023-08-24T08:11:39;7.90;;;6.00;;
15354;SDS011;7777;52.254;9.618;2023-08-24T08:14:04;5.77;;;4.70;;
15354;SDS011;7777;52.254;9.618;2023-08-24T08:16:30;5.37;;;4.67;;
15354;SDS011;7777;52.254;9.618;2023-08-24T08:18:56;5.80;;;4.47;;
15354;SDS011;7777;52.254;9.618;2023-08-24T08:21:22;12.60;;;5.13;;
15354;SDS011;7777;52.254;9.618;2023-08-24T08:23:48;6.27;;;4.77;;
15354;SDS011;7777;52.254;9.618;2023-08-24T08:26:14;7.10;;;4.47;;
15354;SDS011;7777;52.254;9.618;2023-08-24T08:28:41;5.53;;;5.03;;
15354;SDS011;7777;52.254;9.618;2023-08-24T08:31:07;7.47;;;4.80;;
15354;SDS011;7777;52.254;9.618;2023-08-24T08:33:33;5.23;;;4.53;;
15354;SDS011;7777;52.254;9.618;2023-08-24T08:35:59;7.87;;;4.77;;
15354;SDS011;7777;52.254;9.618;2023-08-24T08:38:24;6.77;;;4.33;;
15354;SDS011;7777;52.254;9.618;2023-08-24T08:40:53;11.07;;;4.67;;
15354;SDS011;7777;52.254;9.618;2023-08-24T08:43:22;6.93;;;4.70;;
15354;SDS011;7777;52.254;9.618;2023-08-24T08:45:51;5.97;;;4.87;;
15354;SDS011;7777;52.254;9.618;2023-08-24T08:48:18;14.67;;;4.67;;
15354;SDS011;7777;52.254;9.618;2023-08-24T08:50:49;5.40;;;4.53;;
15354;SDS011;7777;52.254;9.618;2023-08-24T08:53:16;4.87;;;4.37;;
15354;SDS011;7777;52.254;9.618;2023-08-24T08:55:48;7.13;;;4.60;;
15354;SDS011;7777;52.254;9.618;2023-08-24T08:58:18;5.87;;;4.70;;
15354;SDS011;7777;52.254;9.618;2023-08-24T09:00:47;6.87;;;4.57;;
15354;SDS011;7777;52.254;9.618;2023-08-24T09:03:16;7.70;;;4.20;;
15354;SDS011;7777;52.254;9.618;2023-08-24T09:05:43;6.73;;;4.93;;
15354;SDS011;7777;52.254;9.618;2023-08-24T09:08:13;5.60;;;4.07;;
15354;SDS011;7777;52.254;9.618;2023-08-24T09:10:41;5.87;;;4.27;;
15354;SDS011;7777;52.254;9.618;2023-08-24T09:13:07;5.73;;;4.70;;
15354;SDS011;7777;52.254;9.618;2023-08-24T09:15:36;7.17;;;4.23;;
15354;SDS011;7777;52.254;9.618;2023-08-24T09:18:02;9.57;;;4.03;;
15354;SDS011;7777;52.254;9.618;2023-08-24T09:20:28;5.50;;;4.13;;
15354;SDS011;7777;52.254;9.618;2023-08-24T09:22:55;8.50;;;4.17;;
15354;SDS011;7777;52.254;9.618;2023-08-24T09:25:24;5.63;;;3.67;;
15354;SDS011;7777;52.254;9.618;2023-08-24T09:27:56;6.83;;;4.43;;
15354;SDS011;7777;52.254;9.618;2023-08-24T09:30:27;10.43;;;4.77;;
15354;SDS011;7777;52.254;9.618;2023-08-24T09:33:18;5.73;;;4.00;;
15354;SDS011;7777;52.254;9.618;2023-08-24T09:35:43;8.20;;;4.23;;
15354;SDS011;7777;52.254;9.618;2023-08-24T09:38:18;4.60;;;3.70;;
15354;SDS011;7777;52.254;9.618;2023-08-24T09:40:46;7.03;;;3.43;;
15354;SDS011;7777;52.254;9.618;2023-08-24T09:43:17;4.87;;;4.10;;
15354;SDS011;7777;52.254;9.618;2023-08-24T09:45:52;5.23;;;4.07;;
15354;SDS011;7777;52.254;9.618;2023-08-24T09:48:20;5.27;;;3.90;;
15354;SDS011;7777;52.254;9.618;2023-08-24T09:50:47;10.43;;;3.93;;
15354;SDS011;7777;52.254;9.618;2023-08-24T09:53:16;7.97;;;3.90;;
15354;SDS011;7777;52.254;9.618;2023-08-24T09:55:55;6.47;;;3.60;;
15354;SDS011;7777;52.254;9.618;2023-08-24T09:58:24;6.60;;;3.70;;
15354;SDS011;7777;52.254;9.618;2023-08-24T10:00:51;6.93;;;3.77;;
15354;SDS011;7777;52.254;9.618;2023-08-24T10:03:18;4.77;;;3.30;;
15354;SDS011;7777;52.254;9.618;2023-08-24T10:05:47;5.27;;;3.43;;
15354;SDS011;7777;52.254;9.618;2023-08-24T10:08:20;5.73;;;3.27;;
15354;SDS011;7777;52.254;9.618;2023-08-24T10:10:55;5.97;;;3.40;;
15354;SDS011;7777;52.254;9.618;2023-08-24T10:13:41;5.37;;;3.67;;
15354;SDS011;7777;52.254;9.618;2023-08-24T10:16:15;4.80;;;3.47;;
15354;SDS011;7777;52.254;9.618;2023-08-24T10:18:43;6.20;;;3.70;;
15354;SDS011;7777;52.254;9.618;2023-08-24T10:21:09;7.13;;;3.63;;
15354;SDS011;7777;52.254;9.618;2023-08-24T10:23:36;5.73;;;3.50;;
15354;SDS011;7777;52.254;9.618;2023-08-24T10:26:03;9.20;;;3.70;;
15354;SDS011;7777;52.254;9.618;2023-08-24T10:28:32;7.07;;;3.50;;
15354;SDS011;7777;52.254;9.618;2023-08-24T10:30:58;7.00;;;3.77;;
15354;SDS011;7777;52.254;9.618;2023-08-24T10:33:25;7.80;;;3.40;;
15354;SDS011;7777;52.254;9.618;2023-08-24T10:35:52;6.27;;;3.20;;
15354;SDS011;7777;52.254;9.618;2023-08-24T10:38:23;6.07;;;3.13;;
15354;SDS011;7777;52.254;9.618;2023-08-24T10:40:53;5.60;;;3.27;;
15354;SDS011;7777;52.254;9.618;2023-08-24T10:43:19;6.20;;;2.90;;
15354;SDS011;7777;52.254;9.618;2023-08-24T10:45:54;5.57;;;2.77;;
15354;SDS011;7777;52.254;9.618;2023-08-24T10:48:23;7.50;;;3.33;;
15354;SDS011;7777;52.254;9.618;2023-08-24T10:53:47;6.73;;;3.57;;
15354;SDS011;7777;52.254;9.618;2023-08-24T10:56:18;7.00;;;3.50;;
15354;SDS011;7777;52.254;9.618;2023-08-24T10:58:46;5.10;;;3.27;;
15354;SDS011;7777;52.254;9.618;2023-08-24T11:01:16;5.10;;;3.20;;
15354;SDS011;7777;52.254;9.618;2023-08-24T11:04:05;4.30;;;2.67;;
15354;SDS011;7777;52.254;9.618;2023-08-24T11:06:34;8.13;;;2.97;;
15354;SDS011;7777;52.254;9.618;2023-08-24T11:09:19;8.60;;;3.27;;
15354;SDS011;7777;52.254;9.618;2023-08-24T11:11:55;6.27;;;2.80;;
15354;SDS011;7777;52.254;9.618;2023-08-24T11:14:22;4.90;;;2.87;;
15354;SDS011;7777;52.254;9.618;2023-08-24T11:16:51;8.27;;;3.27;;
15354;SDS011;7777;52.254;9.618;2023-08-24T11:19:17;4.57;;;2.70;;
15354;SDS011;7777;52.254;9.618;2023-08-24T11:21:44;8.33;;;2.90;;
15354;SDS011;7777;52.254;9.618;2023-08-24T11:24:14;5.40;;;2.90;;
15354;SDS011;7777;52.254;9.618;2023-08-24T11:26:42;6.60;;;2.57;;
15354;SDS011;7777;52.254;9.618;2023-08-24T11:29:14;8.03;;;3.10;;
15354;SDS011;7777;52.254;9.618;2023-08-24T11:31:41;6.57;;;2.70;;
15354;SDS011;7777;52.254;9.618;2023-08-24T11:34:07;5.80;;;2.90;;
15354;SDS011;7777;52.254;9.618;2023-08-24T11:36:47;5.87;;;3.07;;
15354;SDS011;7777;52.254;9.618;2023-08-24T11:39:22;4.03;;;2.97;;
15354;SDS011;7777;52.254;9.618;2023-08-24T11:41:59;4.73;;;2.70;;
15354;SDS011;7777;52.254;9.618;2023-08-24T11:44:30;3.77;;;2.67;;
15354;SDS011;7777;52.254;9.618;2023-08-24T11:47:11;5.80;;;2.57;;
15354;SDS011;7777;52.254;9.618;2023-08-24T11:49:37;7.27;;;2.70;;
15354;SDS011;7777;52.254;9.618;2023-08-24T11:52:03;7.47;;;2.50;;
15354;SDS011;7777;52.254;9.618;2023-08-24T11:54:32;4.97;;;2.40;;
15354;SDS011;7777;52.254;9.618;2023-08-24T11:56:58;4.80;;;2.70;;
15354;SDS011;7777;52.254;9.618;2023-08-24T11:59:23;4.07;;;2.67;;
15354;SDS011;7777;52.254;9.618;2023-08-24T12:01:51;3.93;;;2.10;;
15354;SDS011;7777;52.254;9.618;2023-08-24T12:04:20;3.97;;;2.40;;
15354;SDS011;7777;52.254;9.618;2023-08-24T12:06:46;5.40;;;2.60;;
15354;SDS011;7777;52.254;9.618;2023-08-24T12:09:11;6.80;;;2.63;;
15354;SDS011;7777;52.254;9.618;2023-08-24T12:11:37;4.20;;;2.67;;
15354;SDS011;7777;52.254;9.618;2023-08-24T12:14:04;5.03;;;2.90;;
15354;SDS011;7777;52.254;9.618;2023-08-24T12:16:34;5.90;;;2.80;;
15354;SDS011;7777;52.254;9.618;2023-08-24T12:19:00;5.55;;;2.63;;
15354;SDS011;7777;52.254;9.618;2023-08-24T12:21:29;3.45;;;2.50;;
15354;SDS011;7777;52.254;9.618;2023-08-24T12:26:30;3.77;;;2.33;;
15354;SDS011;7777;52.254;9.618;2023-08-24T12:29:07;8.65;;;2.80;;
15354;SDS011;7777;52.254;9.618;2023-08-24T12:31:34;4.72;;;2.70;;
15354;SDS011;7777;52.254;9.618;2023-08-24T12:34:04;3.83;;;2.00;;
15354;SDS011;7777;52.254;9.618;2023-08-24T12:36:35;4.30;;;2.50;;
15354;SDS011;7777;52.254;9.618;2023-08-24T12:39:03;8.20;;;3.03;;
15354;SDS011;7777;52.254;9.618;2023-08-24T12:41:30;7.15;;;2.72;;
15354;SDS011;7777;52.254;9.618;2023-08-24T12:43:56;5.53;;;2.83;;
15354;SDS011;7777;52.254;9.618;2023-08-24T12:46:22;5.65;;;2.50;;
15354;SDS011;7777;52.254;9.618;2023-08-24T12:48:49;6.30;;;2.60;;
15354;SDS011;7777;52.254;9.618;2023-08-24T12:51:15;4.93;;;2.53;;
15354;SDS011;7777;52.254;9.618;2023-08-24T12:53:44;6.32;;;2.88;;
15354;SDS011;7777;52.254;9.618;2023-08-24T12:56:09;4.83;;;2.70;;
15354;SDS011;7777;52.254;9.618;2023-08-24T12:58:35;6.40;;;2.50;;
15354;SDS011;7777;52.254;9.618;2023-08-24T13:01:01;5.32;;;2.95;;
15354;SDS011;7777;52.254;9.618;2023-08-24T13:03:27;3.85;;;2.42;;
15354;SDS011;7777;52.254;9.618;2023-08-24T13:05:53;5.78;;;2.53;;
15354;SDS011;7777;52.254;9.618;2023-08-24T13:08:19;7.28;;;2.80;;
15354;SDS011;7777;52.254;9.618;2023-08-24T13:10:44;4.93;;;2.30;;
15354;SDS011;7777;52.254;9.618;2023-08-24T13:13:11;3.33;;;2.03;;
15354;SDS011;7777;52.254;9.618;2023-08-24T13:15:37;3.83;;;2.20;;
15354;SDS011;7777;52.254;9.618;2023-08-24T13:18:03;3.35;;;2.47;;
15354;SDS011;7777;52.254;9.618;2023-08-24T13:20:29;5.93;;;2.30;;
15354;SDS011;7777;52.254;9.618;2023-08-24T13:22:54;5.78;;;2.33;;
15354;SDS011;7777;52.254;9.618;2023-08-24T13:25:20;5.78;;;2.20;;
15354;SDS011;7777;52.254;9.618;2023-08-24T13:27:46;4.22;;;2.30;;
15354;SDS011;7777;52.254;9.618;2023-08-24T13:30:12;3.95;;;2.58;;
15354;SDS011;7777;52.254;9.618;2023-08-24T13:32:38;3.88;;;2.63;;
15354;SDS011;7777;52.254;9.618;2023-08-24T13:35:04;5.03;;;2.38;;
15354;SDS011;7777;52.254;9.618;2023-08-24T13:37:30;4.65;;;2.28;;
15354;SDS011;7777;52.254;9.618;2023-08-24T13:39:57;4.20;;;2.53;;
15354;SDS011;7777;52.254;9.618;2023-08-24T13:42:23;6.40;;;2.70;;
15354;SDS011;7777;52.254;9.618;2023-08-24T13:44:49;4.47;;;2.53;;
15354;SDS011;7777;52.254;9.618;2023-08-24T13:47:15;4.78;;;2.38;;
15354;SDS011;7777;52.254;9.618;2023-08-24T13:49:40;3.60;;;2.15;;
15354;SDS011;7777;52.254;9.618;2023-08-24T13:52:06;5.72;;;2.40;;
15354;SDS011;7777;52.254;9.618;2023-08-24T13:54:32;3.90;;;2.20;;
15354;SDS011;7777;52.254;9.618;2023-08-24T13:56:58;6.28;;;2.30;;
15354;SDS011;7777;52.254;9.618;2023-08-24T13:59:25;11.25;;;2.67;;
15354;SDS011;7777;52.254;9.618;2023-08-24T14:01:51;3.47;;;2.40;;
15354;SDS011;7777;52.254;9.618;2023-08-24T14:04:17;4.78;;;2.60;;
15354;SDS011;7777;52.254;9.618;2023-08-24T14:06:42;4.40;;;2.90;;
15354;SDS011;7777;52.254;9.618;2023-08-24T14:09:08;4.25;;;2.80;;
15354;SDS011;7777;52.254;9.618;2023-08-24T14:11:37;5.97;;;2.88;;
15354;SDS011;7777;52.254;9.618;2023-08-24T14:14:02;4.40;;;2.85;;
15354;SDS011;7777;52.254;9.618;2023-08-24T14:16:28;4.15;;;2.20;;
15354;SDS011;7777;52.254;9.618;2023-08-24T14:18:54;6.93;;;2.88;;
15354;SDS011;7777;52.254;9.618;2023-08-24T14:21:20;4.95;;;2.80;;
15354;SDS011;7777;52.254;9.618;2023-08-24T14:23:48;5.60;;;2.75;;
15354;SDS011;7777;52.254;9.618;2023-08-24T14:26:21;4.90;;;2.53;;
15354;SDS011;7777;52.254;9.618;2023-08-24T14:28:53;8.25;;;2.65;;
15354;SDS011;7777;52.254;9.618;2023-08-24T14:31:22;4.30;;;2.47;;
15354;SDS011;7777;52.254;9.618;2023-08-24T14:33:50;6.25;;;2.60;;
15354;SDS011;7777;52.254;9.618;2023-08-24T14:36:17;5.05;;;2.42;;
15354;SDS011;7777;52.254;9.618;2023-08-24T14:38:43;4.22;;;2.47;;
15354;SDS011;7777;52.254;9.618;2023-08-24T14:41:10;3.65;;;2.30;;
15354;SDS011;7777;52.254;9.618;2023-08-24T14:43:37;3.38;;;2.40;;
15354;SDS011;7777;52.254;9.618;2023-08-24T14:46:04;4.93;;;2.53;;
15354;SDS011;7777;52.254;9.618;2023-08-24T14:48:30;4.68;;;2.60;;
15354;SDS011;7777;52.254;9.618;2023-08-24T14:50:57;5.20;;;2.55;;
15354;SDS011;7777;52.254;9.618;2023-08-24T14:53:27;3.75;;;2.35;;
15354;SDS011;7777;52.254;9.618;2023-08-24T14:55:56;4.95;;;2.72;;
15354;SDS011;7777;52.254;9.618;2023-08-24T14:58:25;4.22;;;2.70;;
15354;SDS011;7777;52.254;9.618;2023-08-24T15:00:52;3.72;;;2.55;;
15354;SDS011;7777;52.254;9.618;2023-08-24T15:03:22;6.15;;;2.45;;
15354;SDS011;7777;52.254;9.618;2023-08-24T15:06:01;3.80;;;2.42;;
15354;SDS011;7777;52.254;9.618;2023-08-24T15:08:30;4.88;;;2.97;;
15354;SDS011;7777;52.254;9.618;2023-08-24T15:10:57;4.88;;;2.88;;
15354;SDS011;7777;52.254;9.618;2023-08-24T15:13:24;5.72;;;2.80;;